• Join FlightAware (Why Join?)
  • Login
  • US Flag 
06:19AM EDT


 

Airport Tracker/Info


-or-


 

Live Flight TrackerFlight Track Log ✈ ZK-OAB ✈ 25-04-2012 ✈ NZAA / AKL - NZCH / CHC

Flight Track Log - Related Links

Times and Time Zones

All times are in EDT time to prevent confusion due to time zone crossing. See the ZK-OAB flight status page for this flight to view local times or setup timezone preferences in your user account.

Time Position Orientation Groundspeed Altitude Reporting Facility
EDT Latitude Longitude Course Direction KTS MPH feet Rate Location/Type
05:08PM -37.0393 174.7818 194° South  Level Estimated
05:09PM -37.1644 174.7421 194° South  Level Estimated
05:10PM -37.2895 174.7023 194° South  Level Estimated
05:11PM -37.4145 174.6624 194° South  Level Estimated
05:12PM -37.5395 174.6223 194° South  Level Estimated
05:13PM -37.6645 174.5821 194° South  Level Estimated
05:14PM -37.7895 174.5418 194° South  Level Estimated
05:15PM -37.9145 174.5013 194° South  Level Estimated
05:16PM -38.0395 174.4607 194° South  Level Estimated
05:17PM -38.1645 174.4200 194° South  Level Estimated
05:18PM -38.2894 174.3791 194° South  Level Estimated
05:19PM -38.4143 174.3380 194° South  Level Estimated
05:20PM -38.5392 174.2969 194° South  Level Estimated
05:21PM -38.6642 174.2556 195° South  Level Estimated
05:22PM -38.7890 174.2141 195° South  Level Estimated
05:23PM -38.9139 174.1725 195° South  Level Estimated
05:24PM -39.0388 174.1307 195° South  Level Estimated
05:25PM -39.1636 174.0888 195° South  Level Estimated
05:26PM -39.2884 174.0468 195° South  Level Estimated
05:27PM -39.4132 174.0046 195° South  Level Estimated
05:28PM -39.5381 173.9622 195° South  Level Estimated
05:29PM -39.6628 173.9197 195° South  Level Estimated
05:30PM -39.7876 173.8771 195° South  Level Estimated
05:31PM -39.9123 173.8343 195° South  Level Estimated
05:32PM -40.0371 173.7913 195° South  Level Estimated
05:33PM -40.1618 173.7482 195° South  Level Estimated
05:34PM -40.2865 173.7049 195° South  Level Estimated
05:35PM -40.4112 173.6614 195° South  Level Estimated
05:36PM -40.5359 173.6178 195° South  Level Estimated
05:37PM -40.6605 173.5741 195° South  Level Estimated
05:38PM -40.7851 173.5301 195° South  Level Estimated
05:39PM -40.9098 173.4860 195° South  Level Estimated
05:40PM -41.0344 173.4418 195° South  Level Estimated
05:41PM -41.1590 173.3973 195° South  Level Estimated
05:42PM -41.2835 173.3527 195° South  Level Estimated
05:43PM -41.4081 173.3080 195° South  Level Estimated
05:44PM -41.5326 173.2630 195° South  Level Estimated
05:45PM -41.6571 173.2179 195° South  Level Estimated
05:46PM -41.7816 173.1726 195° South  Level Estimated
05:47PM -41.9061 173.1271 195° South  Level Estimated
05:48PM -42.0306 173.0815 195° South  Level Estimated
05:49PM -42.1550 173.0357 195° South  Level Estimated
05:50PM -42.2794 172.9897 195° South  Level Estimated
05:51PM -42.4039 172.9435 195° South  Level Estimated
05:52PM -42.5283 172.8971 195° South  Level Estimated
05:53PM -42.6526 172.8506 195° South  Level Estimated
05:54PM -42.7770 172.8038 195° South  Level Estimated
05:55PM -42.9013 172.7569 195° South  Level Estimated
05:56PM -43.0256 172.7097 196° South  Level Estimated
05:57PM -43.1499 172.6624 196° South  Level Estimated
05:58PM -43.2742 172.6149 196° South  Level Estimated
05:59PM -43.3984 172.5672 196° South  Level Estimated
06:00PM -43.5227 172.5194 16° North  Level Estimated
06:01PM -43.3984 172.5672 196° South  Level Estimated
06:02PM -43.5227 172.5194 196° South  Level Estimated